Terminal Aerodrome Forecast
Issued by NWS Shreveport, LA

Home | Current Version | Previous Version | Text Only | Print | Product List | Glossary On
Versions: 1 2 3 4 5 6 7 8 9 10 11 12 13 14 15 16 17 18 19
755
FTUS44 KSHV 270845 AAB
TAFTXK
TAF AMD
KTXK 270845Z 2709/2806 07005KT P6SM VCTS BKN020 OVC030CB
      TEMPO 2709/2712 VRB10KT 3SM TSRA BR OVC020CB
     FM271500 12007KT P6SM VCSH BKN010 OVC020
     FM272100 15008KT P6SM VCTS BKN025 OVC035CB
     FM280000 15009KT P6SM BKN035 OVC050=

USA.gov is the U.S. government's official web portal to all federal, state and local government web resources and services.